Grants Ranch, Colorado
Current Conditions -  °F | °C
As of 1:53 AM on Friday 28 Nov 2014 (Local Time) from KAPA Reporting Station
Few Clouds Few Clouds  
Wind Chill: 39°   Ceiling: Unl
Heat Index: 44°   Visibility: 10mi
Dew Point: 16°   Wind: 10mph
Humidity: 32%   Direction: 160°SSE
Pressure: 30.06"   Gusts: NA
Location:  39.5977°N, 105.071°W
Report Text: KAPA 280853Z 16009KT 10SM FEW220 07/M09 A3006 RMK AO2 SLP146 T00671089 56013
Loading
Personal Weather Stations






























Interactive Weather Map New forecast layout! Learn more

10-Day Weather Forecast

Advertisements
Track Severe Weather on mobile